createdAt,value
2023-04-02T02:51:02.784Z,4.99
2023-04-02T02:53:30.721Z,4.96
2023-04-02T02:55:59.626Z,4.98
2023-04-02T02:58:29.088Z,5.06
2023-04-02T03:00:57.013Z,5.02
2023-04-02T03:03:27.502Z,5.15
2023-04-02T03:05:57.483Z,5.04
2023-04-02T03:08:29.340Z,4.99
2023-04-02T03:10:58.251Z,5.05
2023-04-02T03:13:28.569Z,5.06
2023-04-02T03:16:00.851Z,5.00
2023-04-02T03:18:36.897Z,4.98
2023-04-02T03:21:08.163Z,4.81
2023-04-02T03:23:38.313Z,4.95
2023-04-02T03:26:07.875Z,4.81
2023-04-02T03:28:37.446Z,4.66
2023-04-02T03:31:07.035Z,4.78
2023-04-02T03:33:35.912Z,4.73
2023-04-02T03:36:05.200Z,4.74
2023-04-02T03:38:34.104Z,4.71
2023-04-02T03:41:05.914Z,4.76
2023-04-02T03:43:36.100Z,4.71
2023-04-02T03:46:10.663Z,4.69
2023-04-02T03:48:40.436Z,4.82
2023-04-02T03:51:14.328Z,4.68
2023-04-02T03:53:42.448Z,4.58
2023-04-02T03:56:12.065Z,4.64
2023-04-02T03:58:40.793Z,4.49
2023-04-02T04:01:13.506Z,4.56
2023-04-02T04:03:42.641Z,4.62
2023-04-02T04:06:11.434Z,4.59
2023-04-02T04:08:43.483Z,4.54
2023-04-02T04:11:15.487Z,4.57
2023-04-02T04:13:46.083Z,4.60
2023-04-02T04:16:15.978Z,4.48
2023-04-02T04:18:46.707Z,4.47
2023-04-02T04:21:17.166Z,4.54
2023-04-02T04:23:50.407Z,4.55
2023-04-02T04:26:21.320Z,4.45
2023-04-02T04:28:58.755Z,4.56
2023-04-02T04:31:30.932Z,4.56
2023-04-02T04:34:04.303Z,4.44
2023-04-02T04:36:33.290Z,4.43
2023-04-02T04:39:05.927Z,4.48
2023-04-02T04:41:36.261Z,4.49
2023-04-02T04:44:07.470Z,4.42
2023-04-02T04:46:38.086Z,4.38
2023-04-02T04:49:09.021Z,4.33
2023-04-02T04:51:40.404Z,4.28
2023-04-02T04:54:15.147Z,4.24
2023-04-02T04:56:47.497Z,4.29
2023-04-02T04:59:18.090Z,4.22
2023-04-02T05:01:47.868Z,4.44
2023-04-02T05:04:17.748Z,4.30
2023-04-02T05:06:51.389Z,4.31
2023-04-02T05:09:21.353Z,4.36
2023-04-02T05:11:53.964Z,4.30
2023-04-02T05:14:25.072Z,4.19
2023-04-02T05:16:56.588Z,4.24
2023-04-02T05:19:26.468Z,4.22
2023-04-02T05:21:57.387Z,4.21
2023-04-02T05:24:41.640Z,4.05
2023-04-02T05:27:17.629Z,4.12
2023-04-02T05:29:46.084Z,4.06
2023-04-02T05:32:15.102Z,4.04
2023-04-02T05:34:42.991Z,4.03
2023-04-02T05:37:14.833Z,4.01
2023-04-02T05:39:43.237Z,3.93
2023-04-02T05:42:16.856Z,4.11
2023-04-02T05:44:57.562Z,3.91
2023-04-02T05:47:27.450Z,3.88
2023-04-02T05:50:07.628Z,3.81
2023-04-02T05:52:37.400Z,3.71
2023-04-02T05:55:29.179Z,3.69
2023-04-02T05:58:17.675Z,3.59
2023-04-02T06:01:07.775Z,3.61
2023-04-02T06:03:42.058Z,3.69
2023-04-02T06:06:15.566Z,3.67
2023-04-02T06:08:45.676Z,3.62
2023-04-02T06:11:14.727Z,3.63
2023-04-02T06:13:44.026Z,3.59
2023-04-02T06:16:13.337Z,3.42
2023-04-02T06:18:41.297Z,3.53
2023-04-02T06:21:10.020Z,3.57
2023-04-02T06:23:39.468Z,3.42
2023-04-02T06:26:09.033Z,3.34
2023-04-02T06:28:42.744Z,3.36
2023-04-02T06:31:23.393Z,3.34
2023-04-02T06:33:54.804Z,3.33
2023-04-02T06:36:22.849Z,3.33
2023-04-02T06:38:50.769Z,3.20
2023-04-02T06:41:20.856Z,3.29
2023-04-02T06:43:50.198Z,3.35
2023-04-02T06:46:20.705Z,3.31
2023-04-02T06:48:49.090Z,3.34
2023-04-02T06:51:17.668Z,3.24
2023-04-02T06:53:46.626Z,3.39
2023-04-02T06:56:23.293Z,3.36
2023-04-02T06:58:51.275Z,3.31
2023-04-02T07:01:23.425Z,3.36
2023-04-02T07:03:51.742Z,3.27
2023-04-02T07:06:21.056Z,3.21
2023-04-02T07:08:49.661Z,3.30
2023-04-02T07:11:20.657Z,3.31
2023-04-02T07:13:49.028Z,3.34
2023-04-02T07:16:17.943Z,3.28
2023-04-02T07:18:47.487Z,3.29
2023-04-02T07:21:15.607Z,3.23
2023-04-02T07:23:43.744Z,3.30
2023-04-02T07:26:14.944Z,3.24
2023-04-02T07:28:42.833Z,3.16
2023-04-02T07:31:17.858Z,3.43
2023-04-02T07:33:47.117Z,3.34
2023-04-02T07:36:15.993Z,3.40
2023-04-02T07:38:44.185Z,3.41
2023-04-02T07:41:12.134Z,3.30
2023-04-02T07:43:40.276Z,3.55
2023-04-02T07:46:08.702Z,3.34
2023-04-02T07:48:36.732Z,3.42
2023-04-02T07:51:06.912Z,3.41
2023-04-02T07:53:35.746Z,3.46
2023-04-02T07:56:04.030Z,3.47
2023-04-02T07:58:32.300Z,3.28
2023-04-02T08:01:00.861Z,3.39
2023-04-02T08:03:29.551Z,3.28
2023-04-02T08:05:58.440Z,3.25
2023-04-02T08:08:27.795Z,3.11
2023-04-02T08:10:55.926Z,3.32
2023-04-02T08:13:23.980Z,3.20
2023-04-02T08:15:52.451Z,3.33
2023-04-02T08:18:23.627Z,3.22
2023-04-02T08:20:52.643Z,3.43
2023-04-02T08:23:21.699Z,3.44
2023-04-02T08:25:51.199Z,3.22
2023-04-02T08:28:21.621Z,3.18
2023-04-02T08:30:50.121Z,3.40
2023-04-02T08:33:18.845Z,3.62
2023-04-02T08:35:47.122Z,3.45
2023-04-02T08:38:17.870Z,3.76
2023-04-02T08:40:47.939Z,3.43
2023-04-02T08:43:31.340Z,3.54
2023-04-02T08:46:06.561Z,3.74
2023-04-02T08:48:35.296Z,3.78
2023-04-02T08:51:05.991Z,3.76
2023-04-02T08:53:35.596Z,3.73
2023-04-02T08:56:08.576Z,3.76
2023-04-02T08:58:42.938Z,3.62
2023-04-02T09:01:16.120Z,3.75
2023-04-02T09:03:45.902Z,3.85
2023-04-02T09:06:16.581Z,3.73
2023-04-02T09:08:44.975Z,3.62
2023-04-02T09:11:17.361Z,3.67
2023-04-02T09:13:48.036Z,3.75
2023-04-02T09:16:17.067Z,3.69
2023-04-02T09:18:47.917Z,3.78
2023-04-02T09:21:30.430Z,3.79
2023-04-02T09:23:58.438Z,3.72
2023-04-02T09:26:30.480Z,3.85
2023-04-02T09:29:06.542Z,3.87
2023-04-02T09:31:37.597Z,3.59
2023-04-02T09:34:20.966Z,3.74
2023-04-02T09:36:48.976Z,3.56
2023-04-02T09:39:18.708Z,3.68
2023-04-02T09:41:58.787Z,3.67
2023-04-02T09:44:35.756Z,3.95
2023-04-02T09:47:04.834Z,3.94
2023-04-02T09:49:34.338Z,3.91
2023-04-02T09:52:22.275Z,3.94
2023-04-02T09:55:21.894Z,4.00
2023-04-02T09:57:50.609Z,3.66
2023-04-02T10:00:31.488Z,3.82
2023-04-02T10:03:21.289Z,4.09
2023-04-02T10:05:49.820Z,4.04
2023-04-02T10:08:20.539Z,4.13
2023-04-02T10:10:49.864Z,4.15
2023-04-02T10:13:20.980Z,4.19
2023-04-02T10:15:55.829Z,4.12
2023-04-02T10:18:31.048Z,4.45
2023-04-02T10:20:59.262Z,4.25
2023-04-02T10:23:29.717Z,4.45
2023-04-02T10:26:03.475Z,4.15
2023-04-02T10:28:42.567Z,4.23
2023-04-02T10:31:13.653Z,4.45
2023-04-02T10:33:52.779Z,4.46
2023-04-02T10:36:25.151Z,4.19
2023-04-02T10:38:53.942Z,4.37
2023-04-02T10:41:30.245Z,4.41
2023-04-02T10:44:19.518Z,4.37
2023-04-02T10:46:55.708Z,4.39
2023-04-02T10:49:28.947Z,4.58
2023-04-02T10:52:00.658Z,4.53
2023-04-02T10:54:39.119Z,4.89
2023-04-02T10:57:10.212Z,4.64
2023-04-02T10:59:39.895Z,4.60
2023-04-02T11:02:28.362Z,4.71
2023-04-02T11:04:57.345Z,4.85
2023-04-02T11:07:27.238Z,4.85
2023-04-02T11:09:56.304Z,5.10
2023-04-02T11:12:25.779Z,4.97
2023-04-02T11:14:53.769Z,4.78
2023-04-02T11:17:23.154Z,4.95
2023-04-02T11:19:51.120Z,5.10
2023-04-02T11:22:41.958Z,5.08
2023-04-02T11:25:21.353Z,5.14
2023-04-02T11:27:49.412Z,5.09
2023-04-02T11:30:21.317Z,5.17
2023-04-02T11:32:51.380Z,5.16
2023-04-02T11:35:38.169Z,5.16
2023-04-02T11:38:39.606Z,5.33
2023-04-02T11:41:07.624Z,5.04
2023-04-02T11:44:01.086Z,5.26
2023-04-02T11:46:45.514Z,5.18
2023-04-02T11:49:37.547Z,5.22
2023-04-02T11:52:11.984Z,5.16
2023-04-02T11:54:40.751Z,5.10
2023-04-02T11:57:14.874Z,5.17
2023-04-02T11:59:45.428Z,5.50
2023-04-02T12:02:15.726Z,5.22
2023-04-02T12:04:57.606Z,5.35
2023-04-02T12:08:05.829Z,5.39
2023-04-02T12:10:34.500Z,5.33
2023-04-02T12:13:02.569Z,5.46
2023-04-02T12:15:36.260Z,5.58
2023-04-02T12:18:06.138Z,5.80
2023-04-02T12:20:36.261Z,5.61
2023-04-02T12:23:04.451Z,5.58
2023-04-02T12:25:33.040Z,5.55
2023-04-02T12:28:20.623Z,5.41
2023-04-02T12:30:48.940Z,5.44
2023-04-02T12:33:30.603Z,5.50
2023-04-02T12:36:00.977Z,5.52
2023-04-02T12:38:29.737Z,5.70
2023-04-02T12:40:58.437Z,5.69
2023-04-02T12:43:27.756Z,5.80
2023-04-02T12:45:56.494Z,5.62
2023-04-02T12:48:24.522Z,5.59
2023-04-02T12:50:52.515Z,5.61
2023-04-02T12:53:23.764Z,5.69
2023-04-02T12:55:52.543Z,5.76
2023-04-02T12:58:26.718Z,5.48
2023-04-02T13:01:04.909Z,5.65
2023-04-02T13:03:33.779Z,5.67
2023-04-02T13:06:03.527Z,5.69
2023-04-02T13:08:38.468Z,5.84
2023-04-02T13:11:06.740Z,5.84
2023-04-02T13:13:35.921Z,5.72
2023-04-02T13:16:09.840Z,5.73
2023-04-02T13:18:38.368Z,5.72
2023-04-02T13:21:06.593Z,5.63
2023-04-02T13:23:37.495Z,5.40
2023-04-02T13:26:16.635Z,5.58
2023-04-02T13:28:45.459Z,5.75
2023-04-02T13:31:17.228Z,5.64
2023-04-02T13:33:45.767Z,5.48
2023-04-02T13:36:15.192Z,5.02
2023-04-02T13:39:20.155Z,5.34
2023-04-02T13:45:03.312Z,4.94
2023-04-02T13:48:12.659Z,5.24
2023-04-02T13:51:30.017Z,5.09
2023-04-02T13:54:30.775Z,5.07
2023-04-02T13:58:09.559Z,5.15
2023-04-02T14:04:10.014Z,5.19
2023-04-02T14:10:44.054Z,5.26
2023-04-02T14:13:25.335Z,5.23
2023-04-02T14:16:06.983Z,5.17
2023-04-02T14:18:51.432Z,5.13
2023-04-02T14:22:32.297Z,5.07
2023-04-02T14:24:37.656Z,5.28
2023-04-02T14:27:18.275Z,5.00
2023-04-02T14:29:48.149Z,5.35
2023-04-02T14:32:18.381Z,5.33
2023-04-02T14:34:48.710Z,5.37
2023-04-02T14:37:19.661Z,5.50
2023-04-02T14:39:52.603Z,5.46
2023-04-02T14:42:23.410Z,5.53
2023-04-02T14:45:11.441Z,5.40
2023-04-02T14:47:54.527Z,5.44
2023-04-02T14:50:40.432Z,5.36
2023-04-02T14:56:51.595Z,5.71
2023-04-02T14:59:42.708Z,5.63
2023-04-02T15:03:00.204Z,5.81
2023-04-02T15:05:45.804Z,5.87
2023-04-02T15:11:22.670Z,5.96
2023-04-02T15:14:09.819Z,6.13
2023-04-02T15:16:50.239Z,6.28
2023-04-02T15:19:18.672Z,6.53
2023-04-02T15:22:09.305Z,6.33
2023-04-02T15:24:43.404Z,6.07
2023-04-02T15:27:27.136Z,6.16
2023-04-02T15:29:57.855Z,6.33
2023-04-02T15:32:31.119Z,6.76
2023-04-02T15:35:01.048Z,6.84
2023-04-02T15:37:32.298Z,6.38
2023-04-02T15:40:21.329Z,6.46
2023-04-02T15:42:54.254Z,6.51
2023-04-02T15:45:35.360Z,6.55
2023-04-02T15:48:26.691Z,6.66
2023-04-02T15:51:03.209Z,6.92
2023-04-02T15:53:41.143Z,6.89
2023-04-02T15:56:14.373Z,6.71
2023-04-02T15:59:03.958Z,7.07
2023-04-02T16:01:37.569Z,7.01
2023-04-02T16:04:19.573Z,6.90
2023-04-02T16:07:00.643Z,6.75
2023-04-02T16:09:31.141Z,7.02
2023-04-02T16:12:15.235Z,7.00
2023-04-02T16:14:52.826Z,6.80
2023-04-02T16:17:44.508Z,7.04
2023-04-02T16:20:19.464Z,6.68
2023-04-02T16:22:59.522Z,6.84
2023-04-02T16:25:30.217Z,6.55
2023-04-02T16:28:01.896Z,6.78
2023-04-02T16:30:43.478Z,6.45
2023-04-02T16:33:25.377Z,6.36
2023-04-02T16:36:02.526Z,6.39
2023-04-02T16:38:41.551Z,6.86
2023-04-02T16:41:12.317Z,6.99
2023-04-02T16:43:43.928Z,7.06
2023-04-02T16:46:39.088Z,6.83
2023-04-02T16:49:40.222Z,6.79
2023-04-02T16:52:21.995Z,6.85
2023-04-02T16:55:04.359Z,6.59
2023-04-02T16:57:34.250Z,6.73
2023-04-02T17:00:06.062Z,6.47
2023-04-02T17:02:42.870Z,6.47
2023-04-02T17:05:21.449Z,6.30
2023-04-02T17:07:52.996Z,6.30
2023-04-02T17:10:25.944Z,6.27
2023-04-02T17:12:56.539Z,6.29
2023-04-02T17:15:28.339Z,6.26
2023-04-02T17:17:58.118Z,6.17
2023-04-02T17:20:27.053Z,6.08
2023-04-02T17:22:56.725Z,5.90
2023-04-02T17:25:26.735Z,6.02
2023-04-02T17:27:55.837Z,6.01
2023-04-02T17:30:28.085Z,6.01
2023-04-02T17:32:58.164Z,6.09
2023-04-02T17:35:32.514Z,6.14
2023-04-02T17:38:04.066Z,5.78
2023-04-02T17:40:33.882Z,5.85
2023-04-02T17:43:05.242Z,5.94
2023-04-02T17:45:35.981Z,5.82
2023-04-02T17:48:04.806Z,5.65
2023-04-02T17:51:00.481Z,5.78
2023-04-02T17:53:39.675Z,5.71
2023-04-02T17:56:17.520Z,5.67
2023-04-02T17:58:58.906Z,5.50
2023-04-02T18:01:29.685Z,5.65
2023-04-02T18:04:03.777Z,5.52
2023-04-02T18:06:33.781Z,5.40
2023-04-02T18:09:20.395Z,5.25
2023-04-02T18:11:53.584Z,5.11
2023-04-02T18:14:29.916Z,5.12
2023-04-02T18:16:59.835Z,4.97
2023-04-02T18:19:31.709Z,4.81
2023-04-02T18:22:01.942Z,4.87
2023-04-02T18:24:39.066Z,4.78
2023-04-02T18:27:22.867Z,4.55
2023-04-02T18:29:54.518Z,4.57
2023-04-02T18:33:07.293Z,4.53
2023-04-02T18:35:35.717Z,4.51
2023-04-02T18:38:17.708Z,4.30
2023-04-02T18:40:57.514Z,4.28
2023-04-02T18:43:30.558Z,4.42
2023-04-02T18:46:00.361Z,4.53
2023-04-02T18:48:42.205Z,4.49
2023-04-02T18:51:12.478Z,4.39
2023-04-02T18:53:41.025Z,4.37
2023-04-02T18:56:12.975Z,4.38
2023-04-02T18:58:43.508Z,4.28
2023-04-02T19:01:14.438Z,4.27
2023-04-02T19:03:43.880Z,4.39
2023-04-02T19:06:13.803Z,4.20
2023-04-02T19:08:43.992Z,4.10
2023-04-02T19:11:15.560Z,4.03
2023-04-02T19:13:45.957Z,3.91
2023-04-02T19:16:59.908Z,3.92
2023-04-02T19:19:28.810Z,3.82
2023-04-02T19:22:08.169Z,3.85
2023-04-02T19:24:47.690Z,3.78
2023-04-02T19:27:20.803Z,3.74
2023-04-02T19:29:56.601Z,3.78
2023-04-02T19:32:29.012Z,3.66
2023-04-02T19:35:01.270Z,3.68
2023-04-02T19:37:31.934Z,3.54
2023-04-02T19:40:15.508Z,3.65
2023-04-02T19:42:46.746Z,3.74
2023-04-02T19:45:30.261Z,3.54
2023-04-02T19:47:58.456Z,3.56
2023-04-02T19:50:26.545Z,3.69
2023-04-02T19:52:54.639Z,3.70
2023-04-02T19:55:22.645Z,3.55
2023-04-02T19:57:54.607Z,3.58
2023-04-02T20:00:25.976Z,3.58
2023-04-02T20:02:57.708Z,3.59
2023-04-02T20:05:25.897Z,3.40
2023-04-02T20:07:53.945Z,3.42
2023-04-02T20:10:23.112Z,3.39
2023-04-02T20:12:52.770Z,3.48
2023-04-02T20:15:20.938Z,3.32
2023-04-02T20:17:49.016Z,3.45
2023-04-02T20:20:17.665Z,3.34
2023-04-02T20:22:45.675Z,3.35
2023-04-02T20:25:13.744Z,3.39
2023-04-02T20:27:41.803Z,3.46
2023-04-02T20:30:12.356Z,3.55
2023-04-02T20:32:40.701Z,3.65
2023-04-02T20:35:09.526Z,3.62
2023-04-02T20:37:37.540Z,3.63
2023-04-02T20:40:06.115Z,3.57
2023-04-02T20:42:34.280Z,3.62
2023-04-02T20:45:02.340Z,3.59
2023-04-02T20:47:31.822Z,3.57
2023-04-02T20:49:59.928Z,3.63
2023-04-02T20:52:30.169Z,3.58
2023-04-02T20:54:59.656Z,3.59
2023-04-02T20:57:27.737Z,3.50
2023-04-02T20:59:55.986Z,3.54
2023-04-02T21:02:24.040Z,3.46
2023-04-02T21:04:53.439Z,3.50
2023-04-02T21:07:21.451Z,3.42
2023-04-02T21:09:49.940Z,3.39
2023-04-02T21:12:18.062Z,3.46
2023-04-02T21:14:46.494Z,3.36
2023-04-02T21:17:16.022Z,3.34
2023-04-02T21:19:44.147Z,3.28
2023-04-02T21:22:13.687Z,3.30
2023-04-02T21:24:41.676Z,3.35
2023-04-02T21:27:10.214Z,3.29
2023-04-02T21:29:38.605Z,3.19
2023-04-02T21:32:20.228Z,3.23
2023-04-02T21:34:50.320Z,3.11
2023-04-02T21:37:19.881Z,3.05
2023-04-02T21:39:48.161Z,3.08
2023-04-02T21:42:16.693Z,3.10
2023-04-02T21:44:44.780Z,3.02
2023-04-02T21:47:12.866Z,2.79
2023-04-02T21:49:41.236Z,2.72
2023-04-02T21:52:09.273Z,2.64
2023-04-02T21:54:38.702Z,2.72
2023-04-02T21:57:07.218Z,2.83
2023-04-02T21:59:35.333Z,2.91
2023-04-02T22:02:04.873Z,2.92
2023-04-02T22:04:33.591Z,2.58
2023-04-02T22:07:02.089Z,2.66
2023-04-02T22:09:30.389Z,2.57
2023-04-02T22:12:00.072Z,2.60
2023-04-02T22:14:28.669Z,2.71
2023-04-02T22:16:58.788Z,2.70
2023-04-02T22:19:28.669Z,2.30
2023-04-02T22:21:57.887Z,2.51
2023-04-02T22:24:26.147Z,2.43
2023-04-02T22:26:54.176Z,2.32
2023-04-02T22:29:23.791Z,2.48
2023-04-02T22:31:52.604Z,2.41
2023-04-02T22:34:21.102Z,2.48
2023-04-02T22:36:49.590Z,2.33
2023-04-02T22:39:18.047Z,2.38
2023-04-02T22:41:46.273Z,2.49
2023-04-02T22:44:14.836Z,2.52
2023-04-02T22:46:44.768Z,2.54
2023-04-02T22:49:16.189Z,2.54
2023-04-02T22:51:44.634Z,2.48
2023-04-02T22:54:12.666Z,2.29
2023-04-02T22:56:41.202Z,2.34
2023-04-02T22:59:09.230Z,2.39
2023-04-02T23:01:37.772Z,2.29
2023-04-02T23:04:07.628Z,2.25
2023-04-02T23:06:35.907Z,2.41
2023-04-02T23:09:04.830Z,2.26
2023-04-02T23:11:32.797Z,2.34
2023-04-02T23:14:00.891Z,2.38
2023-04-02T23:16:29.668Z,2.31
2023-04-02T23:18:58.390Z,2.36
2023-04-02T23:21:27.825Z,2.41
2023-04-02T23:23:56.137Z,2.50
2023-04-02T23:26:26.128Z,2.47
2023-04-02T23:28:54.138Z,2.28
2023-04-02T23:31:23.220Z,2.28
2023-04-02T23:33:51.750Z,2.42
2023-04-02T23:36:21.861Z,2.39
2023-04-02T23:38:54.984Z,2.33
2023-04-02T23:41:23.948Z,2.38
2023-04-02T23:43:52.090Z,2.25
2023-04-02T23:46:20.246Z,2.28
2023-04-02T23:48:50.588Z,2.34
2023-04-02T23:51:19.819Z,2.34
2023-04-02T23:53:47.874Z,2.22
2023-04-02T23:56:17.290Z,2.22
2023-04-02T23:58:45.655Z,2.29
